Terminal Aerodrome Forecast
Issued by NWS

Home | Current Version | Previous Version | Text Only | Print | Product List | Glossary On
Versions: 1 2 3 4 5 6 7 8 9 10 11 12 13 14 15 16 17 18 19 20 21 22 23 24 25
000
FTUS46 KEKA 182321
TAFCEC
TAF
KCEC 182321Z 1900/1924 18005KT 6SM BR FEW005 OVC012
      TEMPO 1900/1902 2SM BR OVC010
     FM190200 16010KT 3SM -DZ BR SCT005 OVC010
     FM191200 15012G20KT 3SM -DZ BR OVC005
     FM191800 17018G28KT 4SM -RA BR SCT005 OVC015 WS020/18030KT=

USA.gov is the U.S. government's official web portal to all federal, state and local government web resources and services.